createdAt,value
2018-12-17T00:01:11.648Z,11.57
2018-12-17T00:03:40.165Z,10.60
2018-12-17T00:06:08.969Z,11.60
2018-12-17T00:08:37.552Z,9.80
2018-12-17T00:11:06.252Z,10.57
2018-12-17T00:13:34.723Z,11.03
2018-12-17T00:16:03.344Z,11.40
2018-12-17T00:18:31.811Z,10.73
2018-12-17T00:21:00.340Z,9.40
2018-12-17T00:23:28.848Z,10.43
2018-12-17T00:25:57.481Z,9.87
2018-12-17T00:28:26.004Z,9.87
2018-12-17T00:30:54.515Z,10.17
2018-12-17T00:33:23.045Z,9.37
2018-12-17T00:35:51.763Z,10.00
2018-12-17T00:38:20.352Z,7.70
2018-12-17T00:40:48.821Z,9.63
2018-12-17T00:43:17.374Z,8.20
2018-12-17T00:45:45.958Z,7.90
2018-12-17T00:48:14.459Z,9.23
2018-12-17T00:50:43.020Z,9.30
2018-12-17T00:53:11.765Z,9.03
2018-12-17T00:55:40.233Z,8.50
2018-12-17T00:58:15.005Z,7.77
2018-12-17T01:00:39.291Z,8.77
2018-12-17T01:03:07.812Z,8.00
2018-12-17T01:05:36.395Z,8.80
2018-12-17T01:08:04.912Z,8.90
2018-12-17T01:10:33.392Z,8.27
2018-12-17T01:13:01.907Z,7.93
2018-12-17T01:15:30.407Z,7.67
2018-12-17T01:17:58.941Z,8.93
2018-12-17T01:20:27.444Z,8.67
2018-12-17T01:22:56.002Z,9.30
2018-12-17T01:25:24.429Z,8.33
2018-12-17T01:27:52.967Z,7.90
2018-12-17T01:30:21.555Z,8.13
2018-12-17T01:32:50.037Z,9.20
2018-12-17T01:35:18.501Z,7.73
2018-12-17T01:37:46.941Z,8.20
2018-12-17T01:40:15.967Z,8.23
2018-12-17T01:42:44.480Z,8.07
2018-12-17T01:45:12.932Z,8.43
2018-12-17T01:47:41.511Z,8.60
2018-12-17T01:50:10.050Z,8.60
2018-12-17T01:52:38.651Z,7.33
2018-12-17T01:55:07.088Z,7.23
2018-12-17T01:57:35.619Z,8.50
2018-12-17T02:00:04.181Z,7.67
2018-12-17T02:02:32.671Z,7.77
2018-12-17T02:05:01.141Z,7.60
2018-12-17T02:07:29.593Z,7.73
2018-12-17T02:09:58.153Z,8.13
2018-12-17T02:12:26.625Z,7.73
2018-12-17T02:14:55.145Z,8.83
2018-12-17T02:17:23.646Z,7.40
2018-12-17T02:19:52.110Z,7.53
2018-12-17T02:22:20.614Z,6.93
2018-12-17T02:24:49.141Z,7.80
2018-12-17T02:27:17.619Z,6.97
2018-12-17T02:29:46.179Z,8.17
2018-12-17T02:32:14.658Z,6.30
2018-12-17T02:34:44.233Z,7.80
2018-12-17T02:37:12.683Z,6.97
2018-12-17T02:39:41.205Z,7.40
2018-12-17T02:42:09.687Z,7.77
2018-12-17T02:44:38.219Z,8.33
2018-12-17T02:47:06.765Z,7.57
2018-12-17T02:49:35.356Z,7.93
2018-12-17T02:52:03.803Z,7.50
2018-12-17T02:54:32.283Z,8.00
2018-12-17T02:57:00.761Z,6.93
2018-12-17T02:59:29.197Z,6.50
2018-12-17T03:01:57.661Z,6.53
2018-12-17T03:04:26.185Z,7.00
2018-12-17T03:06:54.634Z,6.43
2018-12-17T03:09:23.354Z,5.97
2018-12-17T03:11:51.842Z,6.43
2018-12-17T03:14:20.314Z,6.80
2018-12-17T03:16:48.860Z,6.10
2018-12-17T03:19:17.381Z,5.93
2018-12-17T03:21:46.170Z,6.37
2018-12-17T03:24:14.717Z,6.10
2018-12-17T03:26:43.214Z,6.63
2018-12-17T03:29:11.698Z,6.00
2018-12-17T03:31:40.372Z,6.87
2018-12-17T03:34:08.850Z,6.10
2018-12-17T03:36:37.318Z,6.30
2018-12-17T03:39:07.232Z,6.43
2018-12-17T03:41:35.736Z,6.27
2018-12-17T03:44:04.183Z,7.30
2018-12-17T03:46:32.679Z,6.20
2018-12-17T03:49:01.155Z,5.87
2018-12-17T03:51:29.635Z,6.60
2018-12-17T03:53:58.115Z,6.00
2018-12-17T03:56:26.630Z,6.33
2018-12-17T03:58:59.235Z,6.20
2018-12-17T04:01:25.639Z,6.47
2018-12-17T04:03:54.132Z,6.17
2018-12-17T04:06:22.611Z,5.83
2018-12-17T04:08:51.135Z,6.40
2018-12-17T04:11:19.598Z,6.60
2018-12-17T04:13:48.080Z,5.70
2018-12-17T04:16:16.592Z,6.60
2018-12-17T04:18:45.118Z,5.50
2018-12-17T04:21:13.757Z,5.13
2018-12-17T04:23:42.209Z,5.23
2018-12-17T04:26:10.775Z,6.00
2018-12-17T04:28:39.275Z,6.03
2018-12-17T04:31:07.765Z,5.90
2018-12-17T04:33:36.362Z,6.00
2018-12-17T04:36:04.891Z,6.60
2018-12-17T04:38:33.707Z,6.20
2018-12-17T04:41:02.341Z,6.43
2018-12-17T04:43:30.931Z,6.50
2018-12-17T04:45:59.425Z,6.77
2018-12-17T04:48:27.956Z,6.37
2018-12-17T04:50:56.430Z,6.13
2018-12-17T04:53:24.994Z,6.20
2018-12-17T04:55:53.657Z,6.17
2018-12-17T04:58:22.183Z,6.47
2018-12-17T05:00:50.778Z,6.73
2018-12-17T05:03:19.474Z,5.90
2018-12-17T05:05:48.005Z,6.07
2018-12-17T05:08:16.614Z,6.27
2018-12-17T05:10:45.110Z,6.40
2018-12-17T05:13:13.614Z,6.30
2018-12-17T05:15:42.102Z,6.53
2018-12-17T05:18:10.662Z,6.87
2018-12-17T05:20:39.237Z,6.20
2018-12-17T05:23:07.780Z,6.00
2018-12-17T05:25:36.254Z,6.47
2018-12-17T05:28:04.833Z,5.13
2018-12-17T05:30:33.329Z,6.70
2018-12-17T05:33:02.809Z,6.67
2018-12-17T05:35:31.423Z,6.57
2018-12-17T05:38:00.058Z,6.43
2018-12-17T05:40:28.620Z,6.37
2018-12-17T05:42:57.152Z,6.33
2018-12-17T05:45:25.736Z,6.33
2018-12-17T05:47:54.309Z,6.47
2018-12-17T05:50:22.832Z,6.80
2018-12-17T05:52:51.403Z,6.40
2018-12-17T05:55:19.957Z,5.63
2018-12-17T05:57:48.469Z,6.47
2018-12-17T06:00:17.002Z,6.13
2018-12-17T06:02:45.531Z,5.20
2018-12-17T06:05:14.091Z,4.63
2018-12-17T06:07:42.699Z,5.30
2018-12-17T06:10:11.213Z,5.87
2018-12-17T06:12:39.702Z,4.90
2018-12-17T06:15:18.019Z,6.07
2018-12-17T06:17:46.429Z,4.63
2018-12-17T06:20:15.243Z,6.07
2018-12-17T06:22:43.770Z,5.63
2018-12-17T06:25:12.318Z,4.50
2018-12-17T06:27:40.813Z,6.40
2018-12-17T06:30:09.242Z,4.47
2018-12-17T06:32:37.726Z,5.73
2018-12-17T06:35:06.617Z,5.77
2018-12-17T06:37:35.066Z,5.00
2018-12-17T06:40:10.034Z,6.07
2018-12-17T06:42:34.446Z,6.87
2018-12-17T06:45:02.994Z,6.90
2018-12-17T06:47:31.554Z,7.50
2018-12-17T06:50:00.008Z,5.90
2018-12-17T06:52:28.575Z,4.40
2018-12-17T06:54:57.030Z,6.07
2018-12-17T06:57:25.510Z,8.07
2018-12-17T06:59:53.976Z,7.80
2018-12-17T07:02:22.944Z,5.47
2018-12-17T07:04:51.398Z,8.23
2018-12-17T07:07:19.841Z,6.77
2018-12-17T07:09:48.258Z,7.77
2018-12-17T07:12:16.765Z,7.43
2018-12-17T07:14:45.224Z,7.73
2018-12-17T07:17:13.761Z,5.47
2018-12-17T07:19:42.207Z,6.50
2018-12-17T07:22:10.693Z,6.80
2018-12-17T07:24:39.150Z,6.67
2018-12-17T07:27:07.672Z,5.87
2018-12-17T07:29:36.149Z,6.17
2018-12-17T07:32:04.633Z,7.23
2018-12-17T07:34:33.451Z,6.20
2018-12-17T07:37:02.327Z,5.50
2018-12-17T07:39:32.538Z,7.53
2018-12-17T07:42:01.076Z,5.70
2018-12-17T07:44:29.591Z,6.23
2018-12-17T07:46:58.098Z,4.20
2018-12-17T07:49:26.568Z,6.17
2018-12-17T07:51:55.097Z,5.83
2018-12-17T07:54:23.596Z,5.73
2018-12-17T07:56:52.450Z,6.77
2018-12-17T07:59:20.955Z,6.43
2018-12-17T08:01:49.400Z,4.37
2018-12-17T08:04:17.860Z,5.07
2018-12-17T08:06:46.372Z,5.73
2018-12-17T08:09:14.877Z,6.40
2018-12-17T08:11:43.361Z,5.03
2018-12-17T08:14:12.230Z,5.13
2018-12-17T08:16:40.706Z,4.90
2018-12-17T08:19:09.279Z,5.73
2018-12-17T08:21:37.769Z,5.73
2018-12-17T08:24:06.265Z,5.90
2018-12-17T08:26:34.823Z,5.87
2018-12-17T08:29:03.338Z,6.40
2018-12-17T08:31:31.846Z,6.40
2018-12-17T08:34:00.407Z,5.80
2018-12-17T08:36:28.882Z,5.67
2018-12-17T08:38:57.328Z,5.87
2018-12-17T08:41:25.875Z,5.63
2018-12-17T08:43:54.354Z,5.00
2018-12-17T08:46:22.897Z,5.33
2018-12-17T08:48:51.379Z,4.73
2018-12-17T08:51:19.835Z,4.47
2018-12-17T08:53:48.311Z,4.60
2018-12-17T08:56:17.033Z,4.43
2018-12-17T08:58:57.333Z,5.63
2018-12-17T09:01:25.908Z,5.40
2018-12-17T09:03:54.423Z,5.70
2018-12-17T09:06:22.915Z,6.47
2018-12-17T09:08:51.424Z,5.00
2018-12-17T09:11:19.867Z,5.63
2018-12-17T09:13:48.550Z,5.53
2018-12-17T09:19:16.891Z,4.43
2018-12-17T09:21:45.352Z,5.10
2018-12-17T09:24:13.854Z,5.40
2018-12-17T09:26:42.344Z,6.20
2018-12-17T09:29:10.843Z,3.53
2018-12-17T09:31:39.373Z,4.97
2018-12-17T09:34:07.887Z,4.37
2018-12-17T09:36:36.621Z,4.73
2018-12-17T09:39:07.505Z,5.80
2018-12-17T09:41:36.088Z,5.20
2018-12-17T09:44:04.609Z,5.23
2018-12-17T09:46:33.429Z,4.60
2018-12-17T09:49:02.539Z,4.47
2018-12-17T09:51:30.969Z,5.20
2018-12-17T09:53:59.465Z,4.73
2018-12-17T09:56:27.941Z,4.90
2018-12-17T09:58:56.426Z,5.07
2018-12-17T10:01:24.885Z,5.20
2018-12-17T10:03:53.344Z,5.07
2018-12-17T10:06:21.800Z,4.40
2018-12-17T10:08:50.449Z,4.70
2018-12-17T10:11:18.912Z,4.33
2018-12-17T10:13:47.463Z,4.53
2018-12-17T10:16:15.924Z,4.30
2018-12-17T10:18:44.393Z,4.50
2018-12-17T10:21:12.869Z,4.97
2018-12-17T10:23:41.415Z,4.20
2018-12-17T10:26:10.009Z,4.47
2018-12-17T10:28:38.429Z,4.37
2018-12-17T10:31:06.914Z,5.10
2018-12-17T10:33:35.475Z,4.77
2018-12-17T10:36:03.953Z,5.50
2018-12-17T10:38:32.462Z,5.47
2018-12-17T10:41:00.931Z,5.40
2018-12-17T10:43:29.417Z,4.40
2018-12-17T10:45:57.930Z,6.63
2018-12-17T10:48:26.377Z,5.87
2018-12-17T10:50:54.907Z,6.20
2018-12-17T10:53:23.439Z,6.53
2018-12-17T10:55:51.933Z,6.80
2018-12-17T10:58:20.417Z,7.30
2018-12-17T11:00:54.295Z,7.23
2018-12-17T11:03:34.603Z,6.50
2018-12-17T11:06:06.882Z,6.97
2018-12-17T11:08:35.442Z,7.70
2018-12-17T11:11:04.192Z,7.10
2018-12-17T11:13:32.655Z,8.47
2018-12-17T11:16:01.185Z,8.23
2018-12-17T11:18:29.677Z,8.77
2018-12-17T11:20:58.276Z,5.90
2018-12-17T11:23:27.033Z,8.27
2018-12-17T11:25:55.516Z,7.53
2018-12-17T11:28:23.970Z,9.73
2018-12-17T11:30:52.416Z,9.43
2018-12-17T11:33:20.874Z,8.83
2018-12-17T11:35:49.363Z,8.87
2018-12-17T11:38:17.887Z,10.10
2018-12-17T11:40:46.432Z,8.33
2018-12-17T11:43:14.859Z,7.57
2018-12-17T11:45:43.364Z,8.30
2018-12-17T11:48:11.850Z,6.37
2018-12-17T11:50:40.361Z,7.23
2018-12-17T11:53:08.808Z,7.63
2018-12-17T11:55:37.302Z,7.50
2018-12-17T11:58:11.200Z,7.87
2018-12-17T12:00:41.620Z,7.70
2018-12-17T12:03:10.138Z,7.87
2018-12-17T12:05:38.644Z,7.20
2018-12-17T12:08:07.234Z,7.50
2018-12-17T12:10:35.695Z,8.93
2018-12-17T12:13:04.183Z,7.83
2018-12-17T12:15:32.772Z,9.17
2018-12-17T12:18:01.336Z,9.53
2018-12-17T12:20:29.840Z,9.03
2018-12-17T12:22:58.321Z,9.37
2018-12-17T12:25:26.803Z,9.47
2018-12-17T12:28:10.095Z,9.20
2018-12-17T12:30:38.576Z,9.20
2018-12-17T12:33:07.069Z,8.10
2018-12-17T12:35:35.522Z,8.73
2018-12-17T12:38:04.032Z,7.83
2018-12-17T12:40:33.216Z,7.43
2018-12-17T12:43:01.947Z,7.97
2018-12-17T12:45:30.420Z,6.80
2018-12-17T12:47:58.968Z,7.07
2018-12-17T12:50:27.486Z,7.77
2018-12-17T12:52:56.030Z,6.80
2018-12-17T12:55:24.490Z,13.10
2018-12-17T12:57:52.916Z,8.07
2018-12-17T13:00:21.409Z,7.53
2018-12-17T13:02:49.853Z,7.67
2018-12-17T13:05:18.345Z,6.93
2018-12-17T13:07:46.834Z,6.10
2018-12-17T13:10:15.287Z,6.10
2018-12-17T13:12:43.783Z,6.07
2018-12-17T13:15:12.284Z,6.37
2018-12-17T13:17:40.765Z,5.47
2018-12-17T13:20:10.008Z,5.93
2018-12-17T13:22:39.670Z,4.80
2018-12-17T13:25:13.517Z,5.27
2018-12-17T13:27:42.027Z,5.07
2018-12-17T13:30:10.694Z,5.40
2018-12-17T13:32:39.158Z,4.97
2018-12-17T13:35:08.800Z,4.77
2018-12-17T13:37:37.306Z,4.17
2018-12-17T13:40:08.150Z,4.40
2018-12-17T13:42:36.717Z,4.40
2018-12-17T13:45:05.806Z,4.10
2018-12-17T13:47:34.334Z,5.20
2018-12-17T13:50:08.183Z,4.30
2018-12-17T13:52:41.938Z,3.83
2018-12-17T13:55:10.617Z,4.77
2018-12-17T13:57:39.400Z,3.70
2018-12-17T14:00:09.397Z,4.37
2018-12-17T14:02:37.893Z,4.87
2018-12-17T14:05:06.431Z,4.43
2018-12-17T14:07:34.966Z,6.83
2018-12-17T14:10:08.831Z,4.33
2018-12-17T14:12:37.287Z,8.27
2018-12-17T14:15:05.823Z,7.27
2018-12-17T14:17:36.384Z,4.47
2018-12-17T14:21:13.880Z,4.90
2018-12-17T14:23:42.434Z,4.87
2018-12-17T14:26:10.999Z,5.07
2018-12-17T14:28:39.546Z,5.13
2018-12-17T14:31:08.086Z,5.17
2018-12-17T14:33:36.633Z,6.70
2018-12-17T14:36:09.689Z,6.50
2018-12-17T14:38:39.704Z,5.87
2018-12-17T14:41:08.214Z,5.57
2018-12-17T14:43:36.758Z,5.17
2018-12-17T14:46:05.334Z,5.33
2018-12-17T14:48:33.826Z,5.03
2018-12-17T14:51:02.320Z,4.20
2018-12-17T14:53:30.801Z,3.90
2018-12-17T14:55:59.293Z,3.70
2018-12-17T14:58:27.727Z,3.97
2018-12-17T15:00:56.171Z,3.93
2018-12-17T15:03:24.687Z,4.50
2018-12-17T15:05:53.222Z,4.77
2018-12-17T15:08:21.887Z,4.00
2018-12-17T15:10:50.330Z,4.33
2018-12-17T15:13:18.820Z,4.60
2018-12-17T15:15:47.345Z,4.80
2018-12-17T15:18:15.833Z,4.30
2018-12-17T15:20:44.276Z,4.60
2018-12-17T15:23:12.738Z,4.07
2018-12-17T15:25:41.245Z,5.03
2018-12-17T15:28:09.698Z,5.03
2018-12-17T15:30:38.487Z,4.43
2018-12-17T15:33:07.045Z,5.27
2018-12-17T15:35:35.504Z,5.10
2018-12-17T15:38:04.055Z,5.63
2018-12-17T15:40:32.513Z,5.67
2018-12-17T15:43:01.220Z,6.00
2018-12-17T15:45:29.760Z,5.90
2018-12-17T15:47:58.270Z,5.80
2018-12-17T15:50:26.788Z,5.43
2018-12-17T15:52:55.335Z,6.60
2018-12-17T15:55:23.852Z,6.67
2018-12-17T15:57:52.369Z,6.60
2018-12-17T16:00:20.915Z,7.07
2018-12-17T16:02:49.439Z,7.60
2018-12-17T16:05:18.020Z,7.17
2018-12-17T16:07:46.530Z,6.73
2018-12-17T16:10:15.067Z,6.63
2018-12-17T16:12:43.560Z,7.30
2018-12-17T16:15:12.042Z,6.90
2018-12-17T16:17:40.580Z,6.90
2018-12-17T16:20:09.142Z,7.20
2018-12-17T16:22:37.675Z,7.57
2018-12-17T16:25:06.520Z,7.70
2018-12-17T16:27:35.093Z,7.73
2018-12-17T16:30:03.576Z,7.93
2018-12-17T16:32:32.048Z,7.53
2018-12-17T16:35:00.516Z,7.00
2018-12-17T16:37:28.990Z,7.43
2018-12-17T16:39:57.572Z,7.30
2018-12-17T16:42:26.786Z,7.23
2018-12-17T16:44:55.812Z,6.17
2018-12-17T16:47:24.427Z,6.87
2018-12-17T16:49:53.428Z,7.27
2018-12-17T16:52:22.809Z,7.57
2018-12-17T16:54:51.736Z,7.83
2018-12-17T16:57:20.699Z,6.80
2018-12-17T16:59:49.569Z,6.63
2018-12-17T17:02:18.925Z,6.97
2018-12-17T17:04:48.820Z,6.70
2018-12-17T17:07:18.423Z,7.10
2018-12-17T17:09:47.515Z,7.30
2018-12-17T17:12:16.223Z,7.00
2018-12-17T17:14:44.891Z,7.43
2018-12-17T17:17:13.434Z,7.07
2018-12-17T17:19:42.023Z,7.70
2018-12-17T17:22:10.704Z,7.37
2018-12-17T17:24:39.718Z,7.73
2018-12-17T17:27:08.190Z,7.20
2018-12-17T17:29:36.637Z,7.80
2018-12-17T17:32:11.427Z,7.63
2018-12-17T17:34:35.722Z,8.00
2018-12-17T17:37:04.215Z,7.67
2018-12-17T17:39:32.883Z,8.20
2018-12-17T17:42:01.378Z,8.13
2018-12-17T17:44:29.917Z,8.60
2018-12-17T17:46:58.370Z,8.00
2018-12-17T17:49:26.934Z,8.00
2018-12-17T17:51:55.452Z,9.73
2018-12-17T17:54:24.636Z,8.23
2018-12-17T17:56:53.173Z,7.77
2018-12-17T17:59:23.322Z,7.33
2018-12-17T18:01:52.609Z,7.70
2018-12-17T18:04:22.032Z,8.87
2018-12-17T18:06:52.968Z,8.57
2018-12-17T18:09:22.478Z,9.33
2018-12-17T18:11:52.013Z,9.37
2018-12-17T18:14:21.669Z,8.70
2018-12-17T18:16:57.666Z,9.40
2018-12-17T18:19:27.645Z,9.03
2018-12-17T18:21:57.903Z,8.70
2018-12-17T18:24:29.180Z,8.07
2018-12-17T18:26:59.333Z,9.37
2018-12-17T18:29:30.159Z,8.60
2018-12-17T18:31:59.809Z,9.37
2018-12-17T18:34:29.318Z,8.60
2018-12-17T18:36:58.918Z,8.97
2018-12-17T18:39:28.702Z,8.43
2018-12-17T18:41:58.469Z,8.97
2018-12-17T18:44:27.198Z,9.53
2018-12-17T18:46:55.823Z,9.30
2018-12-17T18:49:24.641Z,9.43
2018-12-17T18:51:53.171Z,9.50
2018-12-17T18:54:21.946Z,10.43
2018-12-17T18:59:27.988Z,8.70
2018-12-17T19:01:57.157Z,9.77
2018-12-17T19:04:25.887Z,10.90
2018-12-17T19:06:54.399Z,10.77
2018-12-17T19:09:23.030Z,10.77
2018-12-17T19:11:51.628Z,8.73
2018-12-17T19:14:20.337Z,9.20
2018-12-17T19:16:48.819Z,10.40
2018-12-17T19:19:17.340Z,10.30
2018-12-17T19:21:45.848Z,9.30
2018-12-17T19:24:14.394Z,10.17
2018-12-17T19:26:42.869Z,9.50
2018-12-17T19:29:11.367Z,9.43
2018-12-17T19:31:39.943Z,9.87
2018-12-17T19:34:08.506Z,10.67
2018-12-17T19:36:37.121Z,9.47
2018-12-17T19:39:07.711Z,9.80
2018-12-17T19:41:36.259Z,9.67
2018-12-17T19:44:04.837Z,10.13
2018-12-17T19:46:33.382Z,9.63
2018-12-17T19:49:01.969Z,8.40
2018-12-17T19:51:30.506Z,10.37
2018-12-17T19:53:59.045Z,9.63
2018-12-17T19:56:27.602Z,9.10
2018-12-17T19:58:56.253Z,9.33
2018-12-17T20:01:24.792Z,10.00
2018-12-17T20:03:53.410Z,10.50
2018-12-17T20:06:21.930Z,10.10
2018-12-17T20:08:50.497Z,9.40
2018-12-17T20:11:19.260Z,9.10
2018-12-17T20:13:47.774Z,9.30
2018-12-17T20:16:16.404Z,9.10
2018-12-17T20:18:44.962Z,9.53
2018-12-17T20:21:13.528Z,9.37
2018-12-17T20:23:47.990Z,8.53
2018-12-17T20:26:16.562Z,9.53
2018-12-17T20:28:45.110Z,8.87
2018-12-17T20:31:13.580Z,9.37
2018-12-17T20:33:42.100Z,9.50
2018-12-17T20:36:10.714Z,9.13
2018-12-17T20:38:39.261Z,8.87
2018-12-17T20:41:07.851Z,8.37
2018-12-17T20:43:36.356Z,8.20
2018-12-17T20:46:04.947Z,8.80
2018-12-17T20:48:33.448Z,8.33
2018-12-17T20:51:01.999Z,8.70
2018-12-17T20:53:30.498Z,7.73
2018-12-17T20:55:59.003Z,8.23
2018-12-17T20:58:27.460Z,8.63
2018-12-17T21:00:56.050Z,8.97
2018-12-17T21:03:24.526Z,7.70
2018-12-17T21:05:53.074Z,7.93
2018-12-17T21:08:21.649Z,7.40
2018-12-17T21:10:50.270Z,7.93
2018-12-17T21:13:18.724Z,8.83
2018-12-17T21:15:47.245Z,7.73
2018-12-17T21:18:22.101Z,7.00
2018-12-17T21:20:50.585Z,7.13
2018-12-17T21:23:19.462Z,8.17
2018-12-17T21:25:47.957Z,7.60
2018-12-17T21:28:16.443Z,8.60
2018-12-17T21:30:45.778Z,7.20
2018-12-17T21:33:14.254Z,7.23
2018-12-17T21:35:42.834Z,7.10
2018-12-17T21:38:11.278Z,7.30
2018-12-17T21:40:39.759Z,7.37
2018-12-17T21:43:08.283Z,7.37
2018-12-17T21:45:36.960Z,7.43
2018-12-17T21:48:05.478Z,7.63
2018-12-17T21:50:33.942Z,7.20
2018-12-17T21:53:02.417Z,7.73
2018-12-17T21:55:30.956Z,7.50
2018-12-17T21:57:59.460Z,6.90
2018-12-17T22:00:27.969Z,7.13
2018-12-17T22:02:56.546Z,6.73
2018-12-17T22:05:25.020Z,6.93
2018-12-17T22:07:53.512Z,7.33
2018-12-17T22:10:26.202Z,8.33
2018-12-17T22:12:54.725Z,6.60
2018-12-17T22:15:23.187Z,7.23
2018-12-17T22:17:51.693Z,7.10
2018-12-17T22:20:20.212Z,6.53
2018-12-17T22:22:48.735Z,6.57
2018-12-17T22:25:17.240Z,6.37
2018-12-17T22:27:45.760Z,6.03
2018-12-17T22:30:14.303Z,6.00
2018-12-17T22:32:42.797Z,6.20
2018-12-17T22:35:11.267Z,6.37
2018-12-17T22:37:39.739Z,6.03
2018-12-17T22:40:08.887Z,6.07
2018-12-17T22:42:37.610Z,5.43
2018-12-17T22:45:06.261Z,6.57
2018-12-17T22:47:35.363Z,6.07
2018-12-17T22:50:03.994Z,6.33
2018-12-17T22:52:32.691Z,6.10
2018-12-17T22:55:01.378Z,6.50
2018-12-17T22:57:30.060Z,6.03
2018-12-17T22:59:58.615Z,6.97
2018-12-17T23:02:27.173Z,6.37
2018-12-17T23:04:55.683Z,5.93
2018-12-17T23:07:25.780Z,5.93
2018-12-17T23:10:05.461Z,5.80
2018-12-17T23:12:45.076Z,5.43
2018-12-17T23:15:24.876Z,6.30
2018-12-17T23:17:52.764Z,5.90
2018-12-17T23:20:21.415Z,5.53
2018-12-17T23:22:49.910Z,5.93
2018-12-17T23:25:18.479Z,5.10
2018-12-17T23:27:50.886Z,6.50
2018-12-17T23:30:20.763Z,5.93
2018-12-17T23:32:49.188Z,6.40
2018-12-17T23:35:17.669Z,6.67
2018-12-17T23:37:46.174Z,6.73
2018-12-17T23:40:14.705Z,6.50
2018-12-17T23:42:43.236Z,7.30
2018-12-17T23:45:11.817Z,5.60
2018-12-17T23:47:40.302Z,6.37
2018-12-17T23:50:09.026Z,5.83
2018-12-17T23:52:37.512Z,5.90
2018-12-17T23:55:05.964Z,6.27
2018-12-17T23:57:34.408Z,6.27
